Time;durP1;ratioP1;P1;durP2;ratioP2;P2;SDS_P1;SDS_P2;PMS_P1;PMS_P2;Temp;Humidity;BMP_temperature;BMP_pressure;BME280_temperature;BME280_humidity;BME280_pressure;Samples;Min_cycle;Max_cycle;Signal;HPM_P1;HPM_P2
2023/03/11 00:01:12;;;;;;;19.08;10.05;;;;;;;6.17;58.59;97837.72;5092314;28;20062;-59
2023/03/11 00:03:37;;;;;;;15.10;8.18;;;;;;;5.95;59.15;97826.56;5090276;28;20042;-60
2023/03/11 00:06:03;;;;;;;13.63;7.47;;;;;;;5.75;62.47;97834.38;5088887;28;20094;-60
2023/03/11 00:08:29;;;;;;;14.20;8.05;;;;;;;5.66;61.94;97846.88;5093898;28;20034;-60
2023/03/11 00:10:57;;;;;;;13.48;7.63;;;;;;;6.04;60.08;97852.22;5091502;28;20023;-59
2023/03/11 00:13:23;;;;;;;13.95;7.70;;;;;;;5.99;60.32;97843.78;5092650;28;20028;-60
2023/03/11 00:15:55;;;;;;;11.48;6.72;;;;;;;6.04;60.22;97841.81;5091393;28;20080;-60
2023/03/11 00:18:25;;;;;;;13.35;6.93;;;;;;;6.14;60.11;97840.50;5089374;28;20040;-61
2023/03/11 00:20:52;;;;;;;11.77;6.47;;;;;;;6.12;60.15;97844.06;5092612;28;20106;-60
2023/03/11 00:23:18;;;;;;;12.02;7.68;;;;;;;5.98;60.58;97834.25;5093552;28;20035;-60
2023/03/11 00:25:45;;;;;;;10.25;5.85;;;;;;;6.19;60.03;97850.72;5090706;28;20036;-62
2023/03/11 00:28:12;;;;;;;11.10;5.82;;;;;;;6.33;59.72;97855.31;5092407;28;20048;-60
2023/03/11 00:30:39;;;;;;;8.52;5.38;;;;;;;6.16;60.10;97849.09;5093495;28;20032;-59
2023/03/11 00:33:06;;;;;;;9.10;5.15;;;;;;;6.09;60.37;97846.81;5057084;28;20044;-60
2023/03/11 00:35:33;;;;;;;7.75;5.00;;;;;;;5.87;61.26;97847.72;5075648;28;20036;-60
2023/03/11 00:38:06;;;;;;;10.07;5.10;;;;;;;5.58;63.66;97832.47;5090490;28;20075;-59
2023/03/11 00:40:34;;;;;;;8.35;5.10;;;;;;;5.98;63.63;97825.56;5090233;28;20035;-59
2023/03/11 00:42:59;;;;;;;8.57;4.88;;;;;;;5.98;62.01;97821.19;5089932;28;20040;-59
2023/03/11 00:45:26;;;;;;;8.27;4.97;;;;;;;5.76;62.54;97812.59;5093367;28;20032;-59
2023/03/11 00:47:52;;;;;;;9.10;5.78;;;;;;;5.48;63.39;97805.97;5090779;28;20039;-59
2023/03/11 00:50:20;;;;;;;7.72;4.80;;;;;;;5.41;67.45;97812.34;5088473;28;20050;-59
2023/03/11 00:52:47;;;;;;;8.30;4.90;;;;;;;5.27;67.30;97801.66;5072932;28;20032;-59
2023/03/11 00:55:16;;;;;;;8.98;4.88;;;;;;;5.38;68.91;97800.28;5072944;28;20036;-59
2023/03/11 00:57:42;;;;;;;6.22;4.22;;;;;;;5.52;68.02;97794.50;5079991;28;20393;-59
2023/03/11 01:00:12;;;;;;;7.28;4.53;;;;;;;5.55;65.03;97794.38;5096735;28;20081;-59
2023/03/11 01:02:38;;;;;;;7.20;4.00;;;;;;;5.46;65.42;97792.16;5094044;28;20442;-59
2023/03/11 01:05:05;;;;;;;6.63;4.13;;;;;;;5.30;64.97;97791.09;5094718;28;20486;-60
2023/03/11 01:07:32;;;;;;;7.75;4.07;;;;;;;5.32;65.31;97778.88;5094511;28;20046;-59
2023/03/11 01:09:57;;;;;;;5.82;4.20;;;;;;;5.50;65.16;97772.03;5097140;28;20044;-58
2023/03/11 01:12:23;;;;;;;5.28;3.72;;;;;;;5.62;64.77;97774.94;5093422;28;20039;-59
2023/03/11 01:14:48;;;;;;;6.53;4.05;;;;;;;5.66;64.97;97779.16;5094590;28;20032;-59
2023/03/11 01:17:13;;;;;;;6.88;3.92;;;;;;;5.30;65.22;97767.66;5096840;28;20479;-59
2023/03/11 01:19:39;;;;;;;6.00;3.97;;;;;;;5.11;65.98;97771.03;5096764;28;20471;-59
2023/03/11 01:22:04;;;;;;;7.70;4.30;;;;;;;5.21;65.78;97775.84;5094089;28;20541;-59
2023/03/11 01:24:30;;;;;;;8.63;4.68;;;;;;;5.36;65.47;97770.03;5096723;28;20036;-58
2023/03/11 01:26:55;;;;;;;7.00;4.72;;;;;;;5.32;65.64;97768.47;5094006;28;20028;-60
2023/03/11 01:29:21;;;;;;;7.90;4.90;;;;;;;5.09;66.54;97766.81;5094601;28;20086;-61
2023/03/11 01:31:46;;;;;;;7.40;4.45;;;;;;;5.14;66.22;97765.69;5095403;28;20036;-59
2023/03/11 01:34:12;;;;;;;7.30;4.78;;;;;;;4.88;66.69;97758.97;5096609;28;20032;-59
2023/03/11 01:36:37;;;;;;;8.07;4.90;;;;;;;5.12;66.33;97770.13;5094932;28;20059;-59
2023/03/11 01:39:03;;;;;;;7.32;4.82;;;;;;;4.99;66.75;97765.47;5091217;28;20040;-60
2023/03/11 01:41:28;;;;;;;6.22;4.20;;;;;;;5.15;66.36;97772.59;5076775;28;20123;-59
2023/03/11 01:43:54;;;;;;;7.07;4.78;;;;;;;4.96;66.84;97771.66;5061673;28;20116;-60
2023/03/11 01:46:24;;;;;;;6.15;4.18;;;;;;;5.10;66.39;97777.13;5096391;28;20036;-60
2023/03/11 01:48:55;;;;;;;7.70;4.30;;;;;;;5.08;66.41;97781.56;5095289;28;20487;-59
2023/03/11 01:51:26;;;;;;;6.07;4.30;;;;;;;4.95;66.41;97783.00;5093826;28;20063;-59
2023/03/11 01:53:54;;;;;;;5.85;4.28;;;;;;;4.89;66.76;97785.81;5096264;28;20471;-60
2023/03/11 01:56:20;;;;;;;6.60;4.10;;;;;;;4.99;66.45;97791.50;5095020;28;20028;-59
2023/03/11 01:58:48;;;;;;;6.10;4.20;;;;;;;4.87;66.45;97783.28;5094914;28;20031;-59
2023/03/11 02:01:15;;;;;;;6.68;4.68;;;;;;;5.38;65.90;97791.63;5095977;28;20051;-59
2023/03/11 02:03:41;;;;;;;7.32;4.60;;;;;;;5.39;65.73;97785.53;5096194;28;20056;-59
2023/03/11 02:06:11;;;;;;;6.95;4.68;;;;;;;5.08;65.73;97807.59;5089870;28;20040;-60
2023/03/11 02:08:37;;;;;;;6.18;4.25;;;;;;;4.98;66.04;97795.84;5096090;28;20032;-60
2023/03/11 02:11:06;;;;;;;6.63;4.43;;;;;;;5.18;65.72;97795.88;5092862;28;20032;-60
2023/03/11 02:13:34;;;;;;;6.35;4.50;;;;;;;5.15;66.30;97790.84;5095785;28;20139;-61
2023/03/11 02:16:01;;;;;;;6.25;4.30;;;;;;;5.15;66.23;97800.41;5089817;28;20395;-60
2023/03/11 02:18:26;;;;;;;7.28;5.18;;;;;;;5.24;66.11;97796.56;5092748;28;20093;-60
2023/03/11 02:21:19;;;;;;;7.43;4.97;;;;;;;5.23;66.33;97800.94;5093212;28;20537;-60
2023/03/11 02:23:54;;;;;;;8.23;4.72;;;;;;;5.27;65.83;97801.66;5095696;28;20031;-60
2023/03/11 02:26:26;;;;;;;6.07;4.20;;;;;;;4.84;66.76;97805.97;5093053;28;20050;-60
2023/03/11 02:28:53;;;;;;;5.57;4.20;;;;;;;4.97;66.83;97820.19;5077723;28;20032;-60
2023/03/11 02:31:19;;;;;;;7.00;4.82;;;;;;;5.13;66.28;97813.47;5091947;28;20047;-60
2023/03/11 02:33:47;;;;;;;8.52;5.50;;;;;;;4.96;66.82;97812.47;5094657;28;20085;-60
2023/03/11 02:36:39;;;;;;;7.10;5.10;;;;;;;4.70;67.20;97816.91;5094251;28;20036;-59
2023/03/11 02:39:06;;;;;;;7.28;5.13;;;;;;;4.70;67.31;97817.75;5074922;28;20064;-60
2023/03/11 02:41:36;;;;;;;6.10;4.53;;;;;;;4.65;67.50;97808.44;5075235;28;20103;-60
2023/03/11 02:44:03;;;;;;;8.48;4.97;;;;;;;4.90;67.34;97808.31;5078855;28;20537;-59
2023/03/11 02:46:29;;;;;;;6.93;4.53;;;;;;;4.94;67.11;97809.91;5089395;28;20071;-60
2023/03/11 02:48:56;;;;;;;7.45;4.88;;;;;;;4.64;67.96;97814.56;5093779;28;20453;-59
2023/03/11 02:51:21;;;;;;;5.55;3.90;;;;;;;4.60;69.41;97816.44;5095011;28;20071;-60
2023/03/11 02:53:52;;;;;;;5.38;3.92;;;;;;;4.80;67.93;97817.41;5095204;28;20460;-59
2023/03/11 02:56:18;;;;;;;5.15;3.88;;;;;;;4.58;67.93;97813.03;5095199;28;20111;-59
2023/03/11 02:58:43;;;;;;;5.47;3.58;;;;;;;4.79;67.65;97820.91;5089207;28;20123;-61
2023/03/11 03:01:09;;;;;;;6.68;3.38;;;;;;;4.39;68.40;97817.25;5093843;28;20055;-59
2023/03/11 03:03:34;;;;;;;6.32;3.65;;;;;;;4.40;68.90;97813.75;5091052;28;20036;-61
2023/03/11 03:06:00;;;;;;;5.28;3.72;;;;;;;4.74;67.91;97823.69;5071038;28;20436;-60
2023/03/11 03:08:25;;;;;;;5.72;3.85;;;;;;;5.04;67.16;97816.44;5094443;28;20042;-59
2023/03/11 03:10:52;;;;;;;6.40;4.13;;;;;;;4.83;67.91;97825.09;5085283;28;20070;-59
2023/03/11 03:13:17;;;;;;;6.47;3.95;;;;;;;5.12;66.94;97818.75;5094393;28;20044;-60
2023/03/11 03:15:43;;;;;;;6.45;4.13;;;;;;;4.84;67.06;97819.00;5093410;28;20395;-60
2023/03/11 03:18:09;;;;;;;7.78;4.60;;;;;;;4.87;67.11;97831.88;5093030;28;20036;-61
2023/03/11 03:20:35;;;;;;;7.30;4.90;;;;;;;5.14;66.32;97835.13;5091893;28;20123;-60
2023/03/11 03:23:01;;;;;;;6.43;4.55;;;;;;;5.08;66.56;97828.44;5092310;28;20032;-59
2023/03/11 03:25:27;;;;;;;8.10;4.78;;;;;;;5.02;66.59;97828.66;5092516;28;20047;-60
2023/03/11 03:27:52;;;;;;;7.00;5.05;;;;;;;5.05;66.43;97835.50;5072990;28;20036;-60
2023/03/11 03:30:18;;;;;;;7.15;4.95;;;;;;;5.09;66.22;97835.31;5093394;28;20044;-59
2023/03/11 03:32:44;;;;;;;6.32;4.63;;;;;;;5.01;66.39;97826.13;5093602;28;20057;-60
2023/03/11 03:35:09;;;;;;;8.25;5.68;;;;;;;5.28;66.09;97824.16;5093529;28;20040;-59
2023/03/11 03:37:36;;;;;;;8.05;4.65;;;;;;;5.15;65.71;97821.22;5092415;28;20128;-60
2023/03/11 03:40:06;;;;;;;6.85;4.97;;;;;;;5.28;65.93;97819.81;5092329;28;20257;-61
2023/03/11 03:42:34;;;;;;;7.53;5.28;;;;;;;5.31;65.54;97824.91;5085683;28;20036;-61
2023/03/11 03:44:59;;;;;;;8.45;5.82;;;;;;;4.97;66.13;97830.59;5082120;28;20035;-61
2023/03/11 03:47:25;;;;;;;8.50;5.30;;;;;;;4.98;66.33;97834.88;5093265;28;20032;-61
2023/03/11 03:49:50;;;;;;;8.90;5.40;;;;;;;5.12;65.78;97832.59;5093151;28;20498;-61
2023/03/11 03:52:15;;;;;;;8.63;5.60;;;;;;;5.15;65.60;97840.28;5058225;28;20032;-61
2023/03/11 03:54:41;;;;;;;6.88;5.00;;;;;;;5.04;66.11;97852.88;5093655;28;20051;-60
2023/03/11 03:57:07;;;;;;;6.30;4.20;;;;;;;4.92;66.46;97859.41;5093219;28;20157;-61
2023/03/11 03:59:32;;;;;;;7.55;5.40;;;;;;;5.19;66.02;97856.63;5074821;28;20043;-61
2023/03/11 04:01:58;;;;;;;7.50;4.47;;;;;;;5.18;65.87;97858.38;5091551;28;20032;-61
2023/03/11 04:04:23;;;;;;;7.38;4.53;;;;;;;4.93;66.41;97863.69;5092952;28;20032;-61
2023/03/11 04:06:49;;;;;;;6.38;4.35;;;;;;;4.88;66.45;97857.00;5091892;28;20437;-61
2023/03/11 04:09:14;;;;;;;6.35;4.47;;;;;;;5.15;65.64;97861.13;5092494;28;20059;-60
2023/03/11 04:11:39;;;;;;;5.63;4.25;;;;;;;5.39;65.30;97859.28;5093032;28;20028;-60
2023/03/11 04:14:05;;;;;;;7.65;4.40;;;;;;;5.16;65.35;97869.78;5092693;28;20460;-61
2023/03/11 04:16:31;;;;;;;7.22;4.78;;;;;;;5.17;65.38;97858.44;5083691;28;20094;-59
2023/03/11 04:18:57;;;;;;;7.70;4.90;;;;;;;5.23;65.52;97875.59;5081854;28;20032;-60
2023/03/11 04:21:23;;;;;;;6.75;4.32;;;;;;;5.07;65.65;97876.19;5090129;28;20435;-60
2023/03/11 04:23:48;;;;;;;7.50;4.43;;;;;;;5.19;65.52;97867.06;5092428;28;20559;-61
2023/03/11 04:26:14;;;;;;;6.30;3.97;;;;;;;5.10;65.45;97878.66;5091155;28;20435;-60
2023/03/11 04:28:39;;;;;;;6.05;4.13;;;;;;;5.43;64.98;97876.47;5093088;28;20070;-60
2023/03/11 04:31:06;;;;;;;5.47;3.63;;;;;;;5.33;64.76;97885.56;5094355;28;20040;-61
2023/03/11 04:33:32;;;;;;;5.32;3.78;;;;;;;4.77;65.46;97879.97;5095603;28;20060;-60
2023/03/11 04:35:57;;;;;;;6.25;3.92;;;;;;;5.13;65.13;97888.94;5097015;28;20074;-60
2023/03/11 04:38:23;;;;;;;5.43;4.10;;;;;;;5.15;65.20;97886.31;5094048;28;20157;-60
2023/03/11 04:40:49;;;;;;;4.82;3.67;;;;;;;4.96;65.00;97906.13;5095963;28;20036;-60
2023/03/11 04:43:14;;;;;;;3.92;2.97;;;;;;;5.11;64.77;97901.19;5096368;28;20065;-60
2023/03/11 04:45:43;;;;;;;4.53;3.20;;;;;;;5.21;64.65;97899.06;5090770;28;20024;-59
2023/03/11 04:48:08;;;;;;;8.10;4.07;;;;;;;5.06;64.67;97897.91;5087856;28;20039;-60
2023/03/11 04:50:34;;;;;;;5.95;4.03;;;;;;;5.20;64.54;97902.59;5097162;28;20040;-60
2023/03/11 04:53:00;;;;;;;4.97;3.60;;;;;;;5.02;64.90;97906.72;5075246;28;20033;-61
2023/03/11 04:55:25;;;;;;;5.68;3.85;;;;;;;5.00;64.73;97905.97;5089077;28;20039;-60
2023/03/11 04:57:50;;;;;;;5.15;3.17;;;;;;;4.91;65.00;97916.72;5096400;28;20047;-60
2023/03/11 05:00:21;;;;;;;5.22;3.72;;;;;;;5.06;64.75;97916.13;5094409;28;20074;-59
2023/03/11 05:02:46;;;;;;;6.13;3.83;;;;;;;4.95;64.74;97923.50;5092971;28;20110;-59
2023/03/11 05:05:11;;;;;;;6.90;3.72;;;;;;;5.06;64.72;97918.72;5094561;28;20052;-59
2023/03/11 05:07:37;;;;;;;6.55;4.00;;;;;;;4.96;64.88;97933.00;5094198;28;20035;-60
2023/03/11 05:10:04;;;;;;;4.88;3.65;;;;;;;4.78;65.12;97925.88;5094779;28;20069;-60
2023/03/11 05:12:29;;;;;;;5.32;4.07;;;;;;;4.64;65.19;97936.81;5095065;28;20141;-59
2023/03/11 05:14:55;;;;;;;6.78;4.00;;;;;;;4.79;65.22;97936.25;5095804;28;20513;-59
2023/03/11 05:17:20;;;;;;;5.55;3.97;;;;;;;5.09;64.66;97943.78;5087802;28;20399;-59
2023/03/11 05:19:46;;;;;;;6.55;4.50;;;;;;;5.11;64.24;97945.44;5091498;28;20040;-59
2023/03/11 05:22:11;;;;;;;6.50;4.38;;;;;;;5.27;63.60;97942.25;5096019;28;20071;-60
2023/03/11 05:24:37;;;;;;;6.85;4.07;;;;;;;5.27;63.31;97947.47;5096103;28;20106;-59
2023/03/11 05:27:04;;;;;;;5.70;3.70;;;;;;;5.19;63.97;97952.97;5095780;28;20040;-59
2023/03/11 05:29:30;;;;;;;11.02;4.30;;;;;;;5.09;64.00;97949.84;5095942;28;20040;-59
2023/03/11 05:31:55;;;;;;;5.82;3.88;;;;;;;5.26;63.33;97956.16;5095726;28;20481;-59
2023/03/11 05:34:21;;;;;;;5.57;4.30;;;;;;;5.50;62.92;97960.41;5093566;28;20032;-59
2023/03/11 05:36:47;;;;;;;8.25;5.18;;;;;;;5.53;63.13;97956.84;5095232;28;20048;-60
2023/03/11 05:39:13;;;;;;;4.75;3.63;;;;;;;5.43;62.88;97969.38;5092633;28;20463;-60
2023/03/11 05:41:39;;;;;;;5.65;3.53;;;;;;;5.30;63.05;97965.53;5094040;28;20050;-59
2023/03/11 05:44:04;;;;;;;5.07;3.25;;;;;;;5.55;62.83;97975.88;5092575;28;20135;-59
2023/03/11 05:46:31;;;;;;;5.85;3.33;;;;;;;5.26;63.12;97979.59;5095435;28;20042;-59
2023/03/11 05:48:58;;;;;;;4.72;3.40;;;;;;;5.41;62.44;97986.81;5095815;28;20032;-60
2023/03/11 05:51:23;;;;;;;6.70;3.95;;;;;;;5.48;62.46;97992.66;5094460;28;20041;-60
2023/03/11 05:53:49;;;;;;;6.15;4.03;;;;;;;5.58;62.00;97987.00;5094126;28;20031;-60
2023/03/11 05:56:15;;;;;;;4.60;2.88;;;;;;;5.13;62.75;98006.09;5076381;28;20036;-60
2023/03/11 05:58:41;;;;;;;5.10;3.80;;;;;;;5.19;63.07;98002.44;5077416;28;20044;-60
2023/03/11 06:01:11;;;;;;;4.78;3.38;;;;;;;5.34;62.67;98006.19;5081418;28;20463;-59
2023/03/11 06:03:38;;;;;;;5.95;3.45;;;;;;;5.16;62.83;98007.75;5096080;28;20032;-60
2023/03/11 06:06:06;;;;;;;7.85;3.17;;;;;;;5.06;63.11;98006.38;5095900;28;20044;-60
2023/03/11 06:08:33;;;;;;;7.28;3.35;;;;;;;5.17;62.90;98025.91;5095928;28;20039;-60
2023/03/11 06:11:09;;;;;;;7.40;5.50;;;;;;;5.13;62.52;98020.88;5094963;28;20488;-60
2023/03/11 06:13:36;;;;;;;7.05;3.75;;;;;;;4.98;62.84;98030.06;5095749;28;20032;-60
2023/03/11 06:16:02;;;;;;;7.85;3.63;;;;;;;5.05;62.80;98039.38;5095767;28;20501;-60
2023/03/11 06:18:28;;;;;;;6.85;3.95;;;;;;;4.63;62.96;98036.56;5094612;28;20032;-60
2023/03/11 06:20:57;;;;;;;6.05;3.58;;;;;;;4.98;62.63;98052.66;5095908;28;20141;-60
2023/03/11 06:23:23;;;;;;;5.60;4.18;;;;;;;5.03;62.59;98062.00;5095781;28;20042;-60
2023/03/11 06:26:04;;;;;;;6.70;3.40;;;;;;;4.96;61.79;98055.31;5095553;28;20043;-60
2023/03/11 06:28:30;;;;;;;6.40;3.90;;;;;;;4.72;62.16;98064.00;5095844;28;20024;-60
2023/03/11 06:30:57;;;;;;;6.32;4.15;;;;;;;4.94;62.41;98081.38;5092023;28;20032;-60
2023/03/11 06:33:23;;;;;;;10.95;4.43;;;;;;;4.68;62.72;98079.72;5093516;28;20446;-60
2023/03/11 06:35:59;;;;;;;7.10;4.18;;;;;;;4.72;62.10;98092.63;5093757;28;20028;-60
2023/03/11 06:38:25;;;;;;;9.73;5.53;;;;;;;4.87;62.15;98090.34;5091877;28;20043;-60
2023/03/11 06:40:50;;;;;;;10.82;5.47;;;;;;;5.06;62.01;98098.31;5093239;28;20093;-58
2023/03/11 06:43:16;;;;;;;8.13;5.03;;;;;;;5.01;61.72;98112.41;5091457;28;20043;-62
2023/03/11 06:45:41;;;;;;;10.55;4.38;;;;;;;5.10;62.08;98110.31;5094032;28;20082;-61
2023/03/11 06:48:07;;;;;;;10.00;4.63;;;;;;;5.14;61.39;98114.50;5091500;28;20039;-59
2023/03/11 06:50:32;;;;;;;6.15;4.13;;;;;;;4.95;62.10;98118.69;5093296;28;20108;-60
2023/03/11 06:52:58;;;;;;;7.15;4.63;;;;;;;5.24;61.45;98124.63;5092377;28;20031;-61
2023/03/11 06:55:23;;;;;;;7.25;4.75;;;;;;;5.21;61.39;98142.94;5108445;28;20031;-60
2023/03/11 06:57:49;;;;;;;8.77;4.80;;;;;;;5.51;60.83;98139.25;5092600;28;20036;-60
2023/03/11 07:00:15;;;;;;;7.90;4.78;;;;;;;5.13;60.79;98153.63;5093872;28;20363;-60
2023/03/11 07:02:41;;;;;;;8.15;4.50;;;;;;;5.07;61.18;98157.31;5093733;28;20097;-62
2023/03/11 07:05:06;;;;;;;9.27;4.90;;;;;;;5.19;61.09;98164.69;5092458;28;20126;-61
2023/03/11 07:07:32;;;;;;;9.85;4.70;;;;;;;4.88;61.58;98164.03;5094200;28;20564;-61
2023/03/11 07:09:57;;;;;;;7.60;4.50;;;;;;;4.98;61.17;98173.22;5093368;28;20067;-60
2023/03/11 07:12:24;;;;;;;7.68;4.55;;;;;;;5.14;61.17;98173.53;5075800;28;20039;-61
2023/03/11 07:14:59;;;;;;;7.47;5.07;;;;;;;5.31;60.31;98186.00;5094614;28;20035;-61
2023/03/11 07:17:25;;;;;;;7.25;5.20;;;;;;;5.18;60.63;98178.59;5093334;28;20032;-61
2023/03/11 07:19:51;;;;;;;7.97;5.03;;;;;;;4.99;60.69;98197.50;5094283;28;20115;-61
2023/03/11 07:22:16;;;;;;;9.48;5.50;;;;;;;4.96;61.22;98190.66;5094216;28;20039;-60
2023/03/11 07:24:46;;;;;;;7.75;4.57;;;;;;;4.98;60.79;98199.25;5097781;28;20023;-61
2023/03/11 07:27:12;;;;;;;7.53;4.28;;;;;;;5.22;60.20;98196.72;5100806;28;20036;-60
2023/03/11 07:29:37;;;;;;;6.72;4.25;;;;;;;5.32;60.50;98200.69;5078366;28;20081;-60
2023/03/11 07:32:03;;;;;;;6.63;4.18;;;;;;;5.25;60.36;98215.69;5092201;28;20419;-60
2023/03/11 07:34:29;;;;;;;7.47;4.18;;;;;;;5.12;59.85;98215.25;5091882;28;20122;-60
2023/03/11 07:36:54;;;;;;;8.13;4.47;;;;;;;5.28;59.85;98253.78;5095772;28;20056;-63
2023/03/11 07:39:20;;;;;;;9.55;5.00;;;;;;;5.41;60.08;98239.44;5093459;28;20040;-61
2023/03/11 07:41:47;;;;;;;7.13;3.95;;;;;;;5.18;60.23;98243.66;5091676;28;20044;-62
2023/03/11 07:44:14;;;;;;;7.70;3.97;;;;;;;5.47;59.68;98246.22;5093010;28;20059;-61
2023/03/11 07:46:40;;;;;;;6.00;3.33;;;;;;;4.56;60.66;98262.19;5092923;28;20036;-61
2023/03/11 07:49:06;;;;;;;7.47;3.78;;;;;;;5.01;60.37;98266.81;5074069;28;20043;-61
2023/03/11 07:51:33;;;;;;;7.65;3.70;;;;;;;5.33;59.75;98268.34;5093834;28;20035;-62
2023/03/11 07:53:59;;;;;;;5.60;3.10;;;;;;;5.40;59.56;98272.44;5092790;28;20024;-61
2023/03/11 07:56:29;;;;;;;6.50;4.07;;;;;;;5.30;58.72;98284.06;5093801;28;20044;-61
2023/03/11 07:58:57;;;;;;;6.35;3.22;;;;;;;5.01;58.91;98279.84;5093819;28;20028;-61
2023/03/11 08:01:24;;;;;;;7.43;3.53;;;;;;;5.15;59.34;98279.41;5093648;28;20048;-62
2023/03/11 08:03:55;;;;;;;9.10;5.28;;;;;;;5.15;59.58;98288.06;5093513;28;20432;-60
2023/03/11 08:06:27;;;;;;;8.30;4.50;;;;;;;5.49;58.91;98292.13;5094104;28;20036;-60
2023/03/11 08:08:54;;;;;;;10.07;4.77;;;;;;;5.48;58.91;98292.19;5093423;28;20036;-61
2023/03/11 08:11:20;;;;;;;5.45;3.47;;;;;;;5.26;59.10;98310.25;5092650;28;20032;-62
2023/03/11 08:13:46;;;;;;;5.40;3.60;;;;;;;5.51;58.89;98311.16;5093484;28;20141;-61
2023/03/11 08:16:14;;;;;;;8.52;2.90;;;;;;;5.16;57.91;98313.19;5093533;28;20399;-61
2023/03/11 08:18:40;;;;;;;7.65;3.88;;;;;;;5.31;58.02;98314.44;5092833;28;20024;-61
2023/03/11 08:21:07;;;;;;;6.97;3.70;;;;;;;5.98;57.25;98320.84;5093650;28;20028;-61
2023/03/11 08:23:33;;;;;;;8.70;3.78;;;;;;;5.56;56.49;98327.47;5093726;28;20047;-61
2023/03/11 08:26:11;;;;;;;6.88;3.63;;;;;;;5.63;56.48;98323.78;5093742;28;20032;-61
2023/03/11 08:28:37;;;;;;;6.82;3.90;;;;;;;5.55;57.06;98328.41;5093554;28;20051;-61
2023/03/11 08:31:10;;;;;;;9.13;4.63;;;;;;;5.82;57.57;98338.75;5093361;28;20484;-60
2023/03/11 08:33:36;;;;;;;6.65;4.10;;;;;;;5.37;56.95;98360.25;5073280;28;20056;-61
2023/03/11 08:36:01;;;;;;;5.47;3.42;;;;;;;5.27;57.41;98366.66;5092459;28;20113;-61
2023/03/11 08:38:27;;;;;;;7.85;4.35;;;;;;;5.34;57.16;98355.97;5091646;28;20048;-60
2023/03/11 08:40:52;;;;;;;7.60;3.38;;;;;;;5.72;56.91;98368.66;5093629;28;20480;-62
2023/03/11 08:43:17;;;;;;;6.38;3.28;;;;;;;5.99;56.23;98364.28;5093211;28;20028;-60
2023/03/11 08:45:43;;;;;;;9.00;4.18;;;;;;;6.15;55.71;98368.91;5092081;28;20031;-62
2023/03/11 08:48:10;;;;;;;6.68;3.92;;;;;;;5.97;56.45;98377.34;5091289;28;20460;-60
2023/03/11 08:50:36;;;;;;;6.53;3.95;;;;;;;5.90;56.30;98381.03;5081920;28;20532;-61
2023/03/11 08:53:02;;;;;;;9.82;5.13;;;;;;;5.72;56.68;98385.13;5092874;28;20021;-61
2023/03/11 08:55:28;;;;;;;8.50;3.78;;;;;;;5.75;55.75;98392.00;5076187;28;20032;-62
2023/03/11 08:57:54;;;;;;;7.28;3.90;;;;;;;5.48;56.01;98399.81;5083774;28;20115;-60
2023/03/11 09:00:21;;;;;;;9.98;4.93;;;;;;;5.99;55.63;98388.59;5093414;28;20117;-59
2023/03/11 09:02:47;;;;;;;14.80;6.15;;;;;;;6.34;54.93;98396.91;5093389;28;20032;-59
2023/03/11 09:05:12;;;;;;;7.03;3.80;;;;;;;5.88;54.68;98398.50;5093304;28;20090;-61
2023/03/11 09:07:38;;;;;;;12.75;6.35;;;;;;;6.19;54.34;98397.47;5091813;28;20395;-60
2023/03/11 09:10:04;;;;;;;7.78;4.68;;;;;;;6.22;54.59;98408.63;5089623;28;20028;-62
2023/03/11 09:12:29;;;;;;;5.90;3.90;;;;;;;5.86;54.89;98423.75;5080800;28;20024;-71
2023/03/11 09:14:55;;;;;;;7.38;3.65;;;;;;;5.25;56.01;98436.16;5088469;28;20040;-62
2023/03/11 09:17:20;;;;;;;6.65;3.90;;;;;;;4.95;56.98;98446.63;5091491;28;20043;-62
2023/03/11 09:19:46;;;;;;;5.20;3.00;;;;;;;5.27;56.60;98452.59;5089092;28;20574;-62
2023/03/11 09:22:12;;;;;;;4.72;3.30;;;;;;;5.83;55.69;98473.41;5094883;28;20036;-62
2023/03/11 09:24:37;;;;;;;9.15;5.10;;;;;;;6.05;55.28;98458.75;5096485;28;20071;-66
2023/03/11 09:27:03;;;;;;;7.78;4.63;;;;;;;6.03;55.50;98460.59;5095361;28;20039;-62
2023/03/11 09:29:29;;;;;;;6.60;3.72;;;;;;;6.19;54.76;98470.50;5095266;28;20476;-63
2023/03/11 09:31:54;;;;;;;6.35;3.40;;;;;;;6.31;54.77;98459.63;5095578;28;20456;-61
2023/03/11 09:34:20;;;;;;;6.75;3.85;;;;;;;6.41;54.51;98463.63;5095703;28;20036;-60
2023/03/11 09:36:46;;;;;;;7.97;4.00;;;;;;;6.16;54.67;98481.88;5093481;28;20052;-62
2023/03/11 09:39:12;;;;;;;8.45;4.72;;;;;;;6.23;53.93;98477.31;5094571;28;20046;-61
2023/03/11 09:42:00;;;;;;;9.52;4.57;;;;;;;5.60;54.72;98484.56;5094465;28;20043;-61
2023/03/11 09:44:41;;;;;;;8.95;4.50;;;;;;;5.46;55.03;98484.97;5094978;28;20039;-59
2023/03/11 09:47:35;;;;;;;6.00;3.50;;;;;;;5.65;54.81;98488.69;5090895;28;20051;-60
2023/03/11 09:50:29;;;;;;;6.65;3.67;;;;;;;6.11;53.67;98489.84;5076061;28;20417;-61
2023/03/11 09:53:03;;;;;;;6.05;3.58;;;;;;;6.46;53.45;98500.81;5076826;28;20487;-61
2023/03/11 09:55:41;;;;;;;9.77;4.10;;;;;;;6.37;53.78;98506.38;5096263;28;20043;-60
2023/03/11 09:58:19;;;;;;;9.50;4.85;;;;;;;6.40;52.48;98503.66;5095107;28;20035;-60
2023/03/11 10:00:46;;;;;;;7.18;3.42;;;;;;;6.68;52.68;98503.53;5096042;28;20043;-60
2023/03/11 10:03:37;;;;;;;6.40;3.15;;;;;;;6.52;51.47;98518.88;5096248;28;20428;-60
2023/03/11 10:06:24;;;;;;;6.50;3.45;;;;;;;6.99;51.26;98516.34;5095830;28;20040;-61
2023/03/11 10:08:55;;;;;;;6.68;3.78;;;;;;;7.36;51.02;98534.09;5094618;28;20031;-59
2023/03/11 10:11:59;;;;;;;6.05;3.53;;;;;;;7.32;49.21;98529.91;5095924;28;20028;-60
2023/03/11 10:14:27;;;;;;;10.77;4.15;;;;;;;7.32;50.57;98536.88;5096030;28;20028;-61
2023/03/11 10:17:19;;;;;;;5.35;2.92;;;;;;;7.08;49.37;98557.78;5095819;28;20070;-61
2023/03/11 10:19:58;;;;;;;7.27;3.10;;;;;;;7.24;50.56;98531.09;5095981;28;20071;-61
2023/03/11 10:22:31;;;;;;;8.25;3.25;;;;;;;7.14;50.01;98543.63;5096204;28;20028;-61
2023/03/11 10:25:00;;;;;;;11.20;4.65;;;;;;;7.21;50.41;98546.88;5095656;28;20084;-60
2023/03/11 10:27:36;;;;;;;10.75;4.97;;;;;;;7.12;49.50;98566.34;5094862;28;20368;-60
2023/03/11 10:30:07;;;;;;;8.05;3.50;;;;;;;7.06;50.85;98559.59;5096100;28;20583;-60
2023/03/11 10:32:47;;;;;;;12.88;5.45;;;;;;;7.21;49.49;98552.09;5096017;28;20035;-60
2023/03/11 10:35:21;;;;;;;8.95;3.90;;;;;;;7.30;50.10;98556.97;5095510;28;20562;-60
2023/03/11 10:38:02;;;;;;;10.38;4.80;;;;;;;7.08;50.06;98567.38;5095239;28;20509;-59
2023/03/11 10:40:37;;;;;;;11.25;4.97;;;;;;;6.84;49.83;98579.56;5095736;28;20020;-59
2023/03/11 10:43:10;;;;;;;17.42;6.80;;;;;;;6.92;50.41;98587.97;5095612;28;20036;-60
2023/03/11 10:45:40;;;;;;;11.43;4.07;;;;;;;7.05;49.77;98578.78;5094261;28;20110;-60
2023/03/11 10:48:17;;;;;;;7.65;2.88;;;;;;;7.29;50.06;98597.09;5095375;28;20060;-60
2023/03/11 10:51:08;;;;;;;7.30;3.17;;;;;;;7.45;49.61;98597.38;5095039;28;20075;-60
2023/03/11 10:53:47;;;;;;;7.50;3.50;;;;;;;7.21;48.90;98604.34;5095284;28;20028;-60
2023/03/11 10:56:38;;;;;;;8.95;3.80;;;;;;;7.79;47.92;98610.88;5095231;28;20028;-60
2023/03/11 10:59:23;;;;;;;7.72;3.47;;;;;;;7.67;48.36;98631.41;5093742;28;20365;-60
2023/03/11 11:02:01;;;;;;;10.48;4.30;;;;;;;7.56;46.77;98634.41;5095151;28;20051;-60
2023/03/11 11:04:44;;;;;;;7.68;4.05;;;;;;;8.03;46.60;98630.00;5095022;28;20043;-59
2023/03/11 11:07:30;;;;;;;10.07;4.65;;;;;;;8.08;45.82;98614.13;5094861;28;20503;-59
2023/03/11 11:10:10;;;;;;;7.55;3.20;;;;;;;8.38;45.47;98633.03;5094785;28;20163;-59
2023/03/11 11:12:47;;;;;;;7.22;3.10;;;;;;;8.71;46.43;98630.78;5094735;28;20040;-59
2023/03/11 11:15:21;;;;;;;9.35;3.53;;;;;;;8.66;44.91;98639.72;5094809;28;20035;-59
2023/03/11 11:17:47;;;;;;;10.38;4.32;;;;;;;8.42;45.65;98639.84;5093220;28;20032;-59
2023/03/11 11:20:18;;;;;;;5.50;2.80;;;;;;;7.70;45.94;98633.88;5094701;28;20038;-60
2023/03/11 11:22:49;;;;;;;10.50;4.20;;;;;;;7.89;46.06;98656.66;5094656;28;20028;-59
2023/03/11 11:25:35;;;;;;;4.32;2.58;;;;;;;8.06;45.76;98640.34;5094263;28;20036;-59
2023/03/11 11:28:24;;;;;;;7.43;4.10;;;;;;;8.50;45.69;98637.75;5094262;28;20046;-59
2023/03/11 11:30:55;;;;;;;9.45;3.53;;;;;;;8.92;44.67;98644.72;5093915;28;20079;-59
2023/03/11 11:33:30;;;;;;;7.95;3.55;;;;;;;8.52;45.51;98654.22;5094354;28;20078;-60
2023/03/11 11:36:00;;;;;;;7.53;3.42;;;;;;;8.04;45.10;98650.00;5094225;28;20028;-59
2023/03/11 11:38:27;;;;;;;6.00;3.15;;;;;;;8.13;45.50;98665.34;5094348;28;20416;-60
2023/03/11 11:40:55;;;;;;;6.25;3.25;;;;;;;7.63;46.46;98681.19;5093976;28;20032;-60
2023/03/11 11:43:40;;;;;;;8.20;3.40;;;;;;;7.48;46.45;98676.50;5093281;28;20032;-60
2023/03/11 11:46:17;;;;;;;5.68;3.03;;;;;;;7.39;46.76;98687.31;5094251;28;20031;-60
2023/03/11 11:48:55;;;;;;;9.65;4.20;;;;;;;7.11;47.42;98675.19;5094006;28;20039;-60